createdAt,value
2023-03-30T00:00:46.487Z,94269.94
2023-03-30T00:03:13.427Z,94276.63
2023-03-30T00:05:43.104Z,94272.13
2023-03-30T00:08:10.596Z,94279.78
2023-03-30T00:10:38.796Z,94277.88
2023-03-30T00:13:06.134Z,94276.25
2023-03-30T00:15:32.884Z,94269.81
2023-03-30T00:17:59.627Z,94274.78
2023-03-30T00:20:26.417Z,94276.72
2023-03-30T00:22:53.507Z,94269.50
2023-03-30T00:25:20.309Z,94275.59
2023-03-30T00:27:47.334Z,94264.22
2023-03-30T00:30:15.888Z,94273.00
2023-03-30T00:32:43.835Z,94257.88
2023-03-30T00:35:11.061Z,94271.16
2023-03-30T00:37:39.055Z,94268.44
2023-03-30T00:40:08.782Z,94267.13
2023-03-30T00:42:36.817Z,94271.00
2023-03-30T00:45:26.599Z,94274.53
2023-03-30T00:47:59.568Z,94265.47
2023-03-30T00:50:30.631Z,94270.13
2023-03-30T00:52:58.984Z,94262.28
2023-03-30T00:55:27.198Z,94263.25
2023-03-30T00:57:54.619Z,94248.13
2023-03-30T01:00:22.125Z,94247.59
2023-03-30T01:02:56.109Z,94248.88
2023-03-30T01:05:24.348Z,94232.22
2023-03-30T01:07:51.863Z,94230.50
2023-03-30T01:10:19.380Z,94243.63
2023-03-30T01:12:46.165Z,94246.53
2023-03-30T01:15:13.215Z,94235.47
2023-03-30T01:17:49.724Z,94238.69
2023-03-30T01:20:49.384Z,94231.59
2023-03-30T01:23:27.531Z,94242.13
2023-03-30T01:26:22.542Z,94230.59
2023-03-30T01:28:53.397Z,94233.94
2023-03-30T01:31:35.311Z,94233.19
2023-03-30T01:34:08.101Z,94227.06
2023-03-30T01:37:02.944Z,94231.53
2023-03-30T01:39:41.907Z,94211.13
2023-03-30T01:42:36.266Z,94212.38
2023-03-30T01:45:15.599Z,94216.44
2023-03-30T01:48:03.594Z,94211.19
2023-03-30T01:50:45.163Z,94227.16
2023-03-30T01:53:26.605Z,94223.88
2023-03-30T01:56:22.041Z,94224.91
2023-03-30T01:58:58.311Z,94225.88
2023-03-30T02:01:26.503Z,94219.63
2023-03-30T02:03:56.913Z,94203.94
2023-03-30T02:06:48.716Z,94202.31
2023-03-30T02:09:18.926Z,94195.25
2023-03-30T02:11:48.675Z,94209.59
2023-03-30T02:14:19.378Z,94198.66
2023-03-30T02:16:56.261Z,94195.69
2023-03-30T02:19:23.341Z,94196.09
2023-03-30T02:21:50.637Z,94198.50
2023-03-30T02:24:20.178Z,94200.38
2023-03-30T02:26:48.491Z,94191.09
2023-03-30T02:29:16.420Z,94195.31
2023-03-30T02:31:44.311Z,94192.31
2023-03-30T02:34:26.233Z,94188.38
2023-03-30T02:37:18.016Z,94197.16
2023-03-30T02:39:58.372Z,94188.38
2023-03-30T02:42:50.962Z,94195.47
2023-03-30T02:45:20.995Z,94196.88
2023-03-30T02:48:09.319Z,94194.50
2023-03-30T02:50:58.073Z,94190.31
2023-03-30T02:53:54.296Z,94189.97
2023-03-30T02:56:56.501Z,94197.16
2023-03-30T02:59:30.578Z,94201.78
2023-03-30T03:02:12.895Z,94212.41
2023-03-30T03:04:43.689Z,94214.69
2023-03-30T03:07:12.345Z,94214.97
2023-03-30T03:09:39.382Z,94187.53
2023-03-30T03:12:06.763Z,94191.25
2023-03-30T03:14:34.035Z,94190.47
2023-03-30T03:17:00.868Z,94178.78
2023-03-30T03:19:27.599Z,94179.84
2023-03-30T03:21:54.354Z,94173.53
2023-03-30T03:24:21.828Z,94192.66
2023-03-30T03:26:48.555Z,94171.56
2023-03-30T03:29:15.594Z,94161.06
2023-03-30T03:31:42.348Z,94173.25
2023-03-30T03:34:09.187Z,94182.00
2023-03-30T03:36:35.979Z,94187.25
2023-03-30T03:39:02.710Z,94197.97
2023-03-30T03:41:29.454Z,94206.97
2023-03-30T03:43:56.155Z,94194.50
2023-03-30T03:46:23.076Z,94175.97
2023-03-30T03:48:49.857Z,94192.25
2023-03-30T03:51:16.574Z,94182.78
2023-03-30T03:53:43.326Z,94182.44
2023-03-30T03:56:10.024Z,94181.31
2023-03-30T03:58:36.836Z,94176.69
2023-03-30T04:01:03.907Z,94162.59
2023-03-30T04:03:31.282Z,94167.16
2023-03-30T04:05:59.199Z,94162.47
2023-03-30T04:08:26.046Z,94175.19
2023-03-30T04:10:52.758Z,94180.97
2023-03-30T04:13:19.479Z,94172.47
2023-03-30T04:15:46.325Z,94167.94
2023-03-30T04:18:13.063Z,94176.72
2023-03-30T04:20:39.908Z,94174.94
2023-03-30T04:23:09.926Z,94159.47
2023-03-30T04:25:36.741Z,94170.53
2023-03-30T04:28:05.152Z,94160.25
2023-03-30T04:30:32.882Z,94150.38
2023-03-30T04:33:03.783Z,94161.56
2023-03-30T04:35:32.504Z,94169.25
2023-03-30T04:38:00.590Z,94171.94
2023-03-30T04:40:27.680Z,94182.22
2023-03-30T04:42:54.666Z,94169.22
2023-03-30T04:45:21.607Z,94177.72
2023-03-30T04:47:48.271Z,94157.91
2023-03-30T04:50:15.237Z,94181.41
2023-03-30T04:52:42.008Z,94169.38
2023-03-30T04:55:10.018Z,94177.72
2023-03-30T04:57:36.973Z,94183.03
2023-03-30T05:00:09.892Z,94183.91
2023-03-30T05:02:36.764Z,94184.19
2023-03-30T05:05:04.022Z,94182.13
2023-03-30T05:07:30.814Z,94172.38
2023-03-30T05:09:57.490Z,94185.31
2023-03-30T05:12:24.235Z,94184.38
2023-03-30T05:14:51.015Z,94184.22
2023-03-30T05:17:18.005Z,94177.31
2023-03-30T05:19:44.865Z,94184.84
2023-03-30T05:22:11.784Z,94201.16
2023-03-30T05:24:38.703Z,94195.22
2023-03-30T05:27:05.640Z,94206.31
2023-03-30T05:29:32.715Z,94196.44
2023-03-30T05:31:59.454Z,94196.66
2023-03-30T05:34:26.528Z,94192.91
2023-03-30T05:36:54.191Z,94199.75
2023-03-30T05:39:21.210Z,94196.31
2023-03-30T05:41:48.009Z,94202.84
2023-03-30T05:44:14.830Z,94205.81
2023-03-30T05:46:41.593Z,94201.09
2023-03-30T05:49:08.371Z,94213.25
2023-03-30T05:51:35.236Z,94219.28
2023-03-30T05:54:02.324Z,94221.50
2023-03-30T05:56:29.226Z,94222.19
2023-03-30T05:58:56.214Z,94213.41
2023-03-30T06:01:23.015Z,94214.38
2023-03-30T06:03:50.001Z,94212.09
2023-03-30T06:06:17.124Z,94212.22
2023-03-30T06:08:44.100Z,94208.28
2023-03-30T06:11:13.196Z,94202.97
2023-03-30T06:13:39.925Z,94195.97
2023-03-30T06:16:07.068Z,94183.47
2023-03-30T06:18:33.964Z,94185.31
2023-03-30T06:21:03.032Z,94181.13
2023-03-30T06:23:30.121Z,94192.66
2023-03-30T06:25:57.774Z,94190.97
2023-03-30T06:28:24.809Z,94186.50
2023-03-30T06:30:51.614Z,94179.84
2023-03-30T06:33:18.764Z,94176.34
2023-03-30T06:35:50.738Z,94183.31
2023-03-30T06:38:18.186Z,94183.03
2023-03-30T06:40:45.070Z,94188.00
2023-03-30T06:43:23.580Z,94173.22
2023-03-30T06:45:52.235Z,94172.06
2023-03-30T06:48:20.511Z,94176.84
2023-03-30T06:50:48.202Z,94162.75
2023-03-30T06:53:15.257Z,94174.19
2023-03-30T06:55:42.350Z,94178.19
2023-03-30T06:58:09.660Z,94170.53
2023-03-30T07:00:36.785Z,94176.53
2023-03-30T07:03:04.262Z,94174.19
2023-03-30T07:05:31.397Z,94182.34
2023-03-30T07:07:58.497Z,94190.38
2023-03-30T07:10:25.928Z,94199.56
2023-03-30T07:12:52.945Z,94204.72
2023-03-30T07:15:19.898Z,94204.56
2023-03-30T07:17:46.848Z,94199.28
2023-03-30T07:20:15.794Z,94199.19
2023-03-30T07:22:43.170Z,94194.69
2023-03-30T07:25:11.025Z,94191.94
2023-03-30T07:27:38.199Z,94189.69
2023-03-30T07:30:17.920Z,94187.09
2023-03-30T07:32:49.201Z,94190.09
2023-03-30T07:35:17.001Z,94187.75
2023-03-30T07:37:43.731Z,94192.09
2023-03-30T07:40:11.960Z,94187.13
2023-03-30T07:42:38.810Z,94192.47
2023-03-30T07:45:06.231Z,94184.91
2023-03-30T07:47:33.056Z,94192.47
2023-03-30T07:49:59.851Z,94186.16
2023-03-30T07:52:27.467Z,94180.63
2023-03-30T07:54:57.320Z,94187.00
2023-03-30T07:57:24.934Z,94177.56
2023-03-30T07:59:52.063Z,94179.53
2023-03-30T08:02:19.285Z,94175.97
2023-03-30T08:04:46.910Z,94174.38
2023-03-30T08:07:14.640Z,94174.38
2023-03-30T08:09:41.364Z,94174.59
2023-03-30T08:12:08.204Z,94175.59
2023-03-30T08:14:34.963Z,94173.25
2023-03-30T08:17:01.712Z,94182.78
2023-03-30T08:19:28.661Z,94174.84
2023-03-30T08:21:57.140Z,94175.88
2023-03-30T08:24:24.232Z,94173.69
2023-03-30T08:26:51.291Z,94182.44
2023-03-30T08:29:19.369Z,94175.66
2023-03-30T08:31:46.907Z,94183.25
2023-03-30T08:34:13.792Z,94181.25
2023-03-30T08:36:40.871Z,94182.41
2023-03-30T08:39:08.896Z,94180.84
2023-03-30T08:41:35.628Z,94172.31
2023-03-30T08:44:04.463Z,94168.75
2023-03-30T08:46:31.435Z,94172.13
2023-03-30T08:49:01.446Z,94171.31
2023-03-30T08:51:33.313Z,94146.66
2023-03-30T08:54:05.756Z,94142.53
2023-03-30T08:56:36.045Z,94133.59
2023-03-30T08:59:36.023Z,94129.25
2023-03-30T09:02:22.460Z,94112.56
2023-03-30T09:04:57.816Z,94101.81
2023-03-30T09:07:27.889Z,94103.78
2023-03-30T09:09:56.036Z,94105.41
2023-03-30T09:12:34.290Z,94098.66
2023-03-30T09:15:23.373Z,94106.81
2023-03-30T09:18:07.418Z,94093.09
2023-03-30T09:20:35.673Z,94093.06
2023-03-30T09:23:03.288Z,94096.28
2023-03-30T09:25:45.083Z,94084.72
2023-03-30T09:28:22.895Z,94074.53
2023-03-30T09:30:53.454Z,94076.72
2023-03-30T09:33:45.418Z,94075.53
2023-03-30T09:36:29.180Z,94091.66
2023-03-30T09:38:56.296Z,94085.72
2023-03-30T09:41:57.078Z,94103.41
2023-03-30T09:44:28.483Z,94119.09
2023-03-30T09:46:58.782Z,94116.13
2023-03-30T09:49:29.501Z,94114.72
2023-03-30T09:52:05.520Z,94117.72
2023-03-30T09:54:39.216Z,94122.06
2023-03-30T09:57:06.772Z,94120.72
2023-03-30T09:59:37.640Z,94108.78
2023-03-30T10:02:19.257Z,94075.97
2023-03-30T10:04:56.367Z,94075.97
2023-03-30T10:07:28.516Z,94066.19
2023-03-30T10:09:56.036Z,94061.97
2023-03-30T10:12:25.035Z,94042.97
2023-03-30T10:14:57.197Z,94050.66
2023-03-30T10:17:25.671Z,94045.38
2023-03-30T10:20:03.507Z,94040.72
2023-03-30T10:22:49.217Z,94027.25
2023-03-30T10:25:21.372Z,94020.16
2023-03-30T10:27:50.296Z,94003.03
2023-03-30T10:30:23.676Z,93999.84
2023-03-30T10:32:51.289Z,93992.31
2023-03-30T10:35:21.555Z,93994.25
2023-03-30T10:37:50.748Z,93992.50
2023-03-30T10:40:27.836Z,93988.06
2023-03-30T10:42:56.177Z,93991.16
2023-03-30T10:45:29.600Z,93987.47
2023-03-30T10:48:27.014Z,93987.09
2023-03-30T10:51:25.241Z,93973.56
2023-03-30T10:54:13.814Z,93977.91
2023-03-30T10:56:52.644Z,93966.00
2023-03-30T10:59:48.374Z,93962.41
2023-03-30T11:02:53.824Z,93965.09
2023-03-30T11:05:25.237Z,93956.66
2023-03-30T11:07:56.331Z,93956.22
2023-03-30T11:10:32.259Z,93939.28
2023-03-30T11:13:31.828Z,93926.41
2023-03-30T11:16:36.521Z,93939.06
2023-03-30T11:19:17.675Z,93940.75
2023-03-30T11:22:11.799Z,93933.63
2023-03-30T11:24:39.966Z,93912.66
2023-03-30T11:27:52.511Z,93919.19
2023-03-30T11:30:31.092Z,93898.06
2023-03-30T11:33:17.934Z,93893.41
2023-03-30T11:35:51.574Z,93888.66
2023-03-30T11:38:43.463Z,93891.72
2023-03-30T11:41:15.544Z,93894.94
2023-03-30T11:43:42.974Z,93890.72
2023-03-30T11:46:18.946Z,93883.53
2023-03-30T11:48:54.724Z,93874.34
2023-03-30T11:51:42.825Z,93876.50
2023-03-30T11:54:21.387Z,93879.47
2023-03-30T11:56:56.769Z,93867.22
2023-03-30T11:59:46.622Z,93866.31
2023-03-30T12:02:39.791Z,93864.22
2023-03-30T12:05:11.924Z,93858.28
2023-03-30T12:08:01.400Z,93846.91
2023-03-30T12:10:37.506Z,93830.84
2023-03-30T12:13:04.230Z,93832.44
2023-03-30T12:15:50.053Z,93837.50
2023-03-30T12:18:47.825Z,93830.06
2023-03-30T12:21:27.237Z,93825.25
2023-03-30T12:24:16.957Z,93829.16
2023-03-30T12:26:51.662Z,93822.06
2023-03-30T12:32:29.033Z,93820.31
2023-03-30T12:34:57.678Z,93819.09
2023-03-30T12:37:33.684Z,93804.03
2023-03-30T12:40:09.091Z,93787.81
2023-03-30T12:42:47.015Z,93782.34
2023-03-30T12:45:21.313Z,93771.88
2023-03-30T12:48:10.086Z,93766.41
2023-03-30T12:50:57.048Z,93777.81
2023-03-30T12:53:48.811Z,93767.47
2023-03-30T12:56:26.663Z,93771.09
2023-03-30T12:59:28.708Z,93762.44
2023-03-30T13:02:04.755Z,93759.81
2023-03-30T13:04:37.798Z,93756.69
2023-03-30T13:07:07.626Z,93757.56
2023-03-30T13:09:58.331Z,93748.31
2023-03-30T13:12:31.844Z,93745.56
2023-03-30T13:15:24.274Z,93741.16
2023-03-30T13:18:04.755Z,93736.50
2023-03-30T13:20:37.654Z,93734.19
2023-03-30T13:23:13.623Z,93725.56
2023-03-30T13:26:02.767Z,93718.56
2023-03-30T13:29:08.603Z,93712.56
2023-03-30T13:31:53.677Z,93716.72
2023-03-30T13:34:26.579Z,93716.53
2023-03-30T13:37:22.713Z,93690.13
2023-03-30T13:39:58.956Z,93688.34
2023-03-30T13:42:45.798Z,93689.53
2023-03-30T13:45:27.633Z,93701.66
2023-03-30T13:48:31.992Z,93705.38
2023-03-30T13:51:01.042Z,93711.31
2023-03-30T13:53:31.757Z,93707.00
2023-03-30T13:55:58.544Z,93705.88
2023-03-30T13:58:33.476Z,93700.69
2023-03-30T14:01:08.996Z,93693.97
2023-03-30T14:03:41.840Z,93689.00
2023-03-30T14:06:21.058Z,93689.63
2023-03-30T14:09:18.242Z,93686.66
2023-03-30T14:12:02.761Z,93683.50
2023-03-30T14:14:29.949Z,93688.03
2023-03-30T14:16:58.440Z,93692.31
2023-03-30T14:20:07.057Z,93691.91
2023-03-30T14:22:39.912Z,93693.66
2023-03-30T14:25:32.235Z,93690.56
2023-03-30T14:28:07.541Z,93703.59
2023-03-30T14:30:34.921Z,93700.47
2023-03-30T14:33:12.596Z,93706.09
2023-03-30T14:35:45.297Z,93717.97
2023-03-30T14:38:26.399Z,93725.69
2023-03-30T14:40:54.572Z,93731.34
2023-03-30T14:43:31.637Z,93728.56
2023-03-30T14:46:00.620Z,93740.28
2023-03-30T14:48:31.686Z,93756.56
2023-03-30T14:50:59.584Z,93751.47
2023-03-30T14:53:27.919Z,93765.88
2023-03-30T14:55:57.127Z,93773.84
2023-03-30T14:58:30.429Z,93790.38
2023-03-30T15:01:00.036Z,93793.34
2023-03-30T15:03:34.023Z,93790.63
2023-03-30T15:06:03.244Z,93780.16
2023-03-30T15:08:37.063Z,93796.19
2023-03-30T15:11:12.931Z,93798.09
2023-03-30T15:13:53.983Z,93802.63
2023-03-30T15:16:28.047Z,93812.66
2023-03-30T15:19:01.763Z,93815.72
2023-03-30T15:21:30.115Z,93813.94
2023-03-30T15:23:58.743Z,93817.88
2023-03-30T15:26:27.104Z,93824.97
2023-03-30T15:28:56.911Z,93824.72
2023-03-30T15:31:24.435Z,93816.25
2023-03-30T15:33:57.760Z,93814.00
2023-03-30T15:36:27.092Z,93821.22
2023-03-30T15:38:58.870Z,93835.22
2023-03-30T15:41:46.358Z,93842.78
2023-03-30T15:44:18.022Z,93851.50
2023-03-30T15:46:46.799Z,93867.50
2023-03-30T15:49:14.961Z,93850.38
2023-03-30T15:51:47.947Z,93849.03
2023-03-30T15:54:17.307Z,93844.31
2023-03-30T15:57:06.217Z,93843.00
2023-03-30T15:59:36.503Z,93842.88
2023-03-30T16:02:20.448Z,93852.69
2023-03-30T16:04:49.149Z,93856.19
2023-03-30T16:07:22.568Z,93852.59
2023-03-30T16:09:49.379Z,93856.63
2023-03-30T16:12:19.504Z,93858.97
2023-03-30T16:14:48.139Z,93850.97
2023-03-30T16:17:15.675Z,93850.88
2023-03-30T16:19:42.835Z,93856.56
2023-03-30T16:22:11.318Z,93848.66
2023-03-30T16:24:38.626Z,93848.22
2023-03-30T16:27:06.037Z,93847.97
2023-03-30T16:29:33.009Z,93842.88
2023-03-30T16:31:59.922Z,93838.59
2023-03-30T16:34:26.874Z,93850.03
2023-03-30T16:36:53.852Z,93859.41
2023-03-30T16:39:23.827Z,93865.03
2023-03-30T16:41:51.364Z,93858.25
2023-03-30T16:44:19.593Z,93854.41
2023-03-30T16:46:46.925Z,93866.56
2023-03-30T16:49:22.029Z,93868.69
2023-03-30T16:51:49.836Z,93878.16
2023-03-30T16:54:30.269Z,93881.63
2023-03-30T16:56:58.716Z,93899.03
2023-03-30T16:59:29.286Z,93908.50
2023-03-30T17:01:56.226Z,93912.66
2023-03-30T17:04:23.137Z,93940.97
2023-03-30T17:06:50.154Z,93947.94
2023-03-30T17:09:19.140Z,93950.16
2023-03-30T17:11:47.525Z,93950.38
2023-03-30T17:14:14.676Z,93956.19
2023-03-30T17:16:41.571Z,93940.50
2023-03-30T17:19:12.976Z,93924.16
2023-03-30T17:21:43.876Z,93934.97
2023-03-30T17:24:12.765Z,93927.84
2023-03-30T17:26:40.393Z,93912.91
2023-03-30T17:29:07.196Z,93930.31
2023-03-30T17:31:34.109Z,93931.78
2023-03-30T17:34:00.907Z,93933.78
2023-03-30T17:36:28.746Z,93931.97
2023-03-30T17:38:56.645Z,93931.63
2023-03-30T17:41:23.452Z,93929.06
2023-03-30T17:43:50.119Z,93934.31
2023-03-30T17:46:18.803Z,93928.56
2023-03-30T17:48:45.769Z,93932.38
2023-03-30T17:51:12.542Z,93939.72
2023-03-30T17:53:39.307Z,93937.34
2023-03-30T17:56:06.445Z,93939.72
2023-03-30T17:58:35.450Z,93946.16
2023-03-30T18:01:04.760Z,93940.97
2023-03-30T18:03:32.067Z,93947.47
2023-03-30T18:06:01.196Z,93930.41
2023-03-30T18:08:29.005Z,93941.69
2023-03-30T18:10:59.812Z,93933.06
2023-03-30T18:13:28.056Z,93945.56
2023-03-30T18:15:56.766Z,93946.00
2023-03-30T18:18:26.104Z,93936.66
2023-03-30T18:20:54.940Z,93941.41
2023-03-30T18:23:22.095Z,93941.63
2023-03-30T18:25:49.463Z,93948.00
2023-03-30T18:28:24.204Z,93940.25
2023-03-30T18:30:53.227Z,93942.03
2023-03-30T18:33:20.062Z,93930.94
2023-03-30T18:35:48.550Z,93929.22
2023-03-30T18:38:18.070Z,93937.22
2023-03-30T18:40:57.928Z,93945.56
2023-03-30T18:43:26.661Z,93928.03
2023-03-30T18:45:54.571Z,93922.66
2023-03-30T18:48:21.885Z,93921.47
2023-03-30T18:50:53.819Z,93934.38
2023-03-30T18:53:25.905Z,93931.22
2023-03-30T18:55:54.474Z,93928.78
2023-03-30T18:58:29.551Z,93917.06
2023-03-30T19:00:56.715Z,93919.09
2023-03-30T19:03:24.244Z,93914.34
2023-03-30T19:05:51.427Z,93919.56
2023-03-30T19:08:20.404Z,93917.06
2023-03-30T19:10:49.084Z,93914.53
2023-03-30T19:13:18.164Z,93920.31
2023-03-30T19:15:47.693Z,93906.78
2023-03-30T19:18:15.161Z,93917.75
2023-03-30T19:20:42.246Z,93917.53
2023-03-30T19:23:11.989Z,93918.09
2023-03-30T19:25:39.475Z,93927.88
2023-03-30T19:28:06.952Z,93933.25
2023-03-30T19:30:36.758Z,93928.75
2023-03-30T19:33:07.457Z,93931.94
2023-03-30T19:35:34.264Z,93926.84
2023-03-30T19:38:01.073Z,93918.50
2023-03-30T19:40:27.881Z,93903.44
2023-03-30T19:42:54.628Z,93918.69
2023-03-30T19:45:23.041Z,93911.53
2023-03-30T19:47:50.599Z,93920.28
2023-03-30T19:50:19.117Z,93922.88
2023-03-30T19:52:50.863Z,93905.78
2023-03-30T19:55:21.396Z,93913.94
2023-03-30T19:57:48.145Z,93911.81
2023-03-30T20:00:17.490Z,93917.97
2023-03-30T20:02:47.066Z,93918.50
2023-03-30T20:05:15.632Z,93909.97
2023-03-30T20:07:44.626Z,93908.19
2023-03-30T20:10:14.762Z,93914.56
2023-03-30T20:12:41.639Z,93919.50
2023-03-30T20:15:09.845Z,93909.41
2023-03-30T20:17:38.396Z,93918.91
2023-03-30T20:20:08.820Z,93907.03
2023-03-30T20:22:37.224Z,93917.53
2023-03-30T20:25:05.182Z,93913.00
2023-03-30T20:27:33.744Z,93905.03
2023-03-30T20:30:00.925Z,93912.94
2023-03-30T20:32:27.786Z,93916.09
2023-03-30T20:34:54.472Z,93919.47
2023-03-30T20:37:21.165Z,93918.31
2023-03-30T20:39:49.994Z,93907.97
2023-03-30T20:42:18.196Z,93917.69
2023-03-30T20:44:50.266Z,93921.69
2023-03-30T20:47:17.843Z,93914.34
2023-03-30T20:49:45.004Z,93903.00
2023-03-30T20:52:12.597Z,93904.00
2023-03-30T20:54:40.999Z,93911.19
2023-03-30T20:57:07.881Z,93919.75
2023-03-30T20:59:34.598Z,93905.41
2023-03-30T21:02:01.318Z,93923.69
2023-03-30T21:04:28.826Z,93918.97
2023-03-30T21:06:55.994Z,93931.69
2023-03-30T21:09:22.690Z,93934.25
2023-03-30T21:11:49.312Z,93926.91
2023-03-30T21:14:15.973Z,93925.47
2023-03-30T21:16:42.770Z,93906.34
2023-03-30T21:19:09.945Z,93902.13
2023-03-30T21:21:37.859Z,93901.31
2023-03-30T21:24:05.867Z,93913.63
2023-03-30T21:26:32.555Z,93918.22
2023-03-30T21:28:59.132Z,93888.06
2023-03-30T21:31:27.423Z,93901.03
2023-03-30T21:33:54.325Z,93905.78
2023-03-30T21:36:21.109Z,93897.50
2023-03-30T21:38:47.822Z,93900.28
2023-03-30T21:41:16.378Z,93903.47
2023-03-30T21:43:45.207Z,93919.81
2023-03-30T21:46:14.146Z,93915.44
2023-03-30T21:48:42.388Z,93908.88
2023-03-30T21:51:14.067Z,93911.47
2023-03-30T21:53:42.161Z,93903.53
2023-03-30T21:56:11.120Z,93888.41
2023-03-30T21:58:38.765Z,93892.41
2023-03-30T22:01:12.456Z,93875.72
2023-03-30T22:03:41.473Z,93888.06
2023-03-30T22:06:09.895Z,93889.28
2023-03-30T22:08:36.871Z,93888.53
2023-03-30T22:11:09.373Z,93874.38
2023-03-30T22:13:36.093Z,93868.22
2023-03-30T22:16:04.851Z,93861.28
2023-03-30T22:18:31.957Z,93867.44
2023-03-30T22:21:00.248Z,93863.50
2023-03-30T22:23:27.253Z,93854.16
2023-03-30T22:25:54.241Z,93857.38
2023-03-30T22:28:21.017Z,93853.00
2023-03-30T22:30:47.945Z,93858.97
2023-03-30T22:33:16.089Z,93850.44
2023-03-30T22:35:43.985Z,93856.38
2023-03-30T22:38:11.320Z,93860.16
2023-03-30T22:40:41.885Z,93855.41
2023-03-30T22:43:12.933Z,93850.44
2023-03-30T22:45:40.190Z,93849.03
2023-03-30T22:48:07.084Z,93839.91
2023-03-30T22:50:34.911Z,93831.97
2023-03-30T22:53:01.913Z,93836.94
2023-03-30T22:55:28.859Z,93847.06
2023-03-30T22:57:56.970Z,93831.34
2023-03-30T23:00:24.788Z,93828.16
2023-03-30T23:02:51.747Z,93839.47
2023-03-30T23:05:21.385Z,93842.03
2023-03-30T23:07:49.584Z,93849.41
2023-03-30T23:10:22.331Z,93851.97
2023-03-30T23:12:49.336Z,93865.09
2023-03-30T23:15:18.577Z,93862.50
2023-03-30T23:17:47.459Z,93863.50
2023-03-30T23:20:15.514Z,93882.16
2023-03-30T23:22:42.660Z,93874.41
2023-03-30T23:25:09.994Z,93889.31
2023-03-30T23:27:37.705Z,93892.28
2023-03-30T23:30:05.602Z,93896.06
2023-03-30T23:32:33.756Z,93901.63
2023-03-30T23:35:01.000Z,93900.25
2023-03-30T23:37:30.212Z,93893.25
2023-03-30T23:40:02.141Z,93879.97
2023-03-30T23:42:29.214Z,93881.13
2023-03-30T23:44:56.150Z,93876.56
2023-03-30T23:47:23.049Z,93878.97
2023-03-30T23:49:49.804Z,93881.53
2023-03-30T23:52:16.561Z,93873.38
2023-03-30T23:54:43.371Z,93864.44
2023-03-30T23:57:10.240Z,93864.28
2023-03-30T23:59:37.319Z,93861.50
